Airfield :
LOGIN :

Register | Disclaimer

   EN    FR    IT 

 










Legend :    VFR   Marginal VFR   IFR   Intensive IFR   Very Intensive IFR
Visi :
Ceiling :
>= 8 km
>= 3000ft
5 to 8 km
1000 to 3000 ft
1500m to 5 km
500 to 1000 ft
800 to 1500m
200 to 500 ft
< 800m
< 200 ft
Symbols :   Thunderstorms  Fog  Heavy snow  Heavy precipitations  Wind > 20 kt
SIGMETs :     Misc.  Thunderstorms  Icing  Turbulence  Mountain Waves  Volcanic Ashes






- Airport Elevation : 74 ft
- IATA code : MRS


LFML - Marseille / Marignane

CURRENT METAR :
  • 070600Z AUTO 35015KT CAVOK 21/07 Q1011 NOSIG

EXPIRED METARs :
  • 070530Z AUTO 34020KT CAVOK 20/07 Q1011 NOSIG
  • 070500Z AUTO 33017KT CAVOK 20/08 Q1011 NOSIG
  • 070430Z AUTO 33016KT 9999 FEW025 20/07 Q1011 NOSIG
  • 070400Z AUTO 33018KT CAVOK 20/07 Q1011 TEMPO 33020G35KT

TAF TAF LFML
Valid from the 07 at 03:00 until the 08 at 09:00 UTC


070200Z 0703/0809 33020G35KT CAVOK TX32/0715Z TN19/0703Z
BECMG 0705/0707 34015KT
BECMG 0709/0711 31010KT
BECMG 0717/0719 VRB04KT
ATIS : +33 4 42 31 15 15



MET'MAP, your aeronautical weather chart ! - Copyright ORBIFLY December 2007 - Disclaimer

ORBIFLY MET'MAP TEAM :

Programming & Development : Alexandra Zaïnal
Concept & original design : Baudouin d'Aumeries
Assistance for programming : Marc-Olivier Méhu
Technical & hardware support : Manuel Goepfert

Contact : metmap@orbifly.com




SOURCES & CREDITS :

   NOAA